Arrantzale — EBVT — position and weather

sailwx.info

Track history (hours):
 
Tides and Currents Weather Stations Pressure Air Temp Water Temp Dewpoint Dewpoint Depression Visibility Wind Speed Wind Dir Waves Ship Positions

Arrantzale

Last reported at 2015-Apr-18 14:09 UTC. Time now 2015-Apr-18 15:13 UTC.
Position N 43°23' W 001°48'.

Length 32 m.

Type: Fishing. MMSI: 224065290.

Date/timePositionNaut miles runAvg speedWind from/ knotsBaromVisibWave heightAir tempDewpointWater temp
2015-Apr-18 14:09N 43°23' W 001°48'0 0.0
2015-Apr-17 17:29N 43°23' W 001°48'0 0.0
2015-Apr-17 16:33N 43°23' W 001°48'0 0.0
2015-Apr-17 15:33N 43°23' W 001°48'0 0.0
2015-Apr-17 14:33N 43°23' W 001°48'0 0.0
2015-Apr-17 13:33N 43°23' W 001°48'7 6.6
2015-Apr-17 12:29N 43°30' W 001°48'1110.9
2015-Apr-17 11:28N 43°41' W 001°47'5610.7
2015-Apr-17 06:11N 44°38' W 001°46'1 0.2
2015-Apr-17 02:34N 44°38' W 001°45'7 1.3
2015-Apr-16 21:13N 44°32' W 001°41'5310.3
2015-Apr-16 16:03N 43°39' W 001°45'710.0
2015-Apr-16 15:24N 43°32' W 001°46'910.2
2015-Apr-16 14:33N 43°24' W 001°47'1 0.9
2015-Apr-16 13:33N 43°23' W 001°48'0 0.0
2015-Apr-16 12:33N 43°23' W 001°48'7 6.9
2015-Apr-16 11:33N 43°30' W 001°45'1111.5
2015-Apr-16 10:33N 43°41' W 001°43'1111.2
2015-Apr-16 09:33N 43°53' W 001°42'3311.0
2015-Apr-16 06:33N 44°26' W 001°38'2 0.9
2015-Apr-16 04:29N 44°27' W 001°37'2 1.8
2015-Apr-16 03:31N 44°26' W 001°37'1 0.9
2015-Apr-16 02:31N 44°25' W 001°37'0 0.4
2015-Apr-16 01:23N 44°25' W 001°37'3 0.9
2015-Apr-15 22:16N 44°24' W 001°41'41 8.5
2015-Apr-15 17:25N 43°43' W 001°42'910.2
2015-Apr-15 16:33N 43°34' W 001°44'1010.5
2015-Apr-15 15:33N 43°24' W 001°47'1 1.0
2015-Apr-15 14:34N 43°23' W 001°47'0 0.0
2015-Apr-15 13:33N 43°23' W 001°47'0 0.1
2015-Apr-15 12:33N 43°23' W 001°47'1210.5
2015-Apr-15 11:27N 43°34' W 001°44'2410.9
2015-Apr-15 09:16N 43°58' W 001°41'811.0
2015-Apr-15 08:33N 44°06' W 001°40'1111.0
2015-Apr-15 07:34N 44°17' W 001°38'1 0.9
2015-Apr-15 06:33N 44°18' W 001°38'0 0.5
2015-Apr-15 05:34N 44°17' W 001°38'3 2.6
2015-Apr-15 04:33N 44°16' W 001°42'1 0.5
2015-Apr-15 03:33N 44°15' W 001°42'2 0.5
2015-Apr-15 00:07N 44°15' W 001°44'6 2.1
2015-Apr-14 21:11N 44°11' W 001°38'0 0.1
2015-Apr-14 20:23N 44°11' W 001°38'34 7.0
2015-Apr-14 15:33N 43°38' W 001°46'1211.5
2015-Apr-14 14:32N 43°26' W 001°48'3 3.4
2015-Apr-14 13:33N 43°23' W 001°47'0 0.0
2015-Apr-14 12:33N 43°23' W 001°47'0 0.0
2015-Apr-14 11:33N 43°23' W 001°47'0 0.0
2015-Apr-14 10:31N 43°23' W 001°47'0 0.0
2015-Apr-14 09:33N 43°23' W 001°47'0 0.0
2015-Apr-14 08:33N 43°23' W 001°47'0 0.0
2015-Apr-14 07:33N 43°23' W 001°47'3 3.1
2015-Apr-14 06:33N 43°24' W 001°51'5 2.4
2015-Apr-14 04:29N 43°26' W 001°58'8 8.5
2015-Apr-14 03:31N 43°33' W 001°51'8 8.8
2015-Apr-14 02:33N 43°40' W 001°46'9 8.9
2015-Apr-14 01:33N 43°49' W 001°42'3 2.7
2015-Apr-14 00:29N 43°52' W 001°42'9 8.3
2015-Apr-13 23:23N 43°45' W 001°49'15 2.1
2015-Apr-13 16:13N 43°32' W 002°01'9 4.2
2015-Apr-13 14:08N 43°25' W 001°55'5 9.5
2015-Apr-13 13:34N 43°23' W 001°47'0 0.2
2015-Apr-13 12:33N 43°23' W 001°48'4 3.7
2015-Apr-13 11:32N 43°26' W 001°52'7 2.3
2015-Apr-13 08:33N 43°32' W 001°55'5 5.4
2015-Apr-13 07:33N 43°27' W 001°52'5 5.0
2015-Apr-13 06:33N 43°23' W 001°48'  
2015-Apr-10 10:33N 43°23' W 001°48'0 0.0
2015-Apr-10 09:33N 43°23' W 001°48'0 0.0
2015-Apr-10 08:33N 43°23' W 001°48'0 0.0
2015-Apr-10 07:33N 43°23' W 001°48'0 0.0
2015-Apr-10 06:33N 43°23' W 001°48'0 0.0
2015-Apr-10 05:33N 43°23' W 001°48'0 0.0
2015-Apr-10 04:33N 43°23' W 001°48'0 0.0
2015-Apr-10 03:33N 43°23' W 001°48'0 0.0
2015-Apr-10 02:33N 43°23' W 001°48'0 0.0
2015-Apr-10 01:33N 43°23' W 001°48'0 0.0
2015-Apr-10 00:33N 43°23' W 001°48'0 0.0
2015-Apr-09 23:33N 43°23' W 001°48'0 0.0
2015-Apr-09 22:33N 43°23' W 001°48'2 2.4
2015-Apr-09 21:33N 43°25' W 001°47'9 7.3
2015-Apr-09 20:21N 43°34' W 001°46'1 0.7
2015-Apr-09 19:32N 43°34' W 001°45'0 0.1
2015-Apr-09 18:33N 43°34' W 001°45'0 0.2
2015-Apr-09 17:34N 43°35' W 001°45'1 1.5
2015-Apr-09 16:34N 43°35' W 001°47'7 7.2
2015-Apr-09 15:33N 43°28' W 001°46'5 4.5
2015-Apr-09 14:33N 43°23' W 001°47'0 0.0
2015-Apr-09 13:33N 43°23' W 001°47'0 0.0
2015-Apr-09 12:33N 43°23' W 001°47'0 0.0
2015-Apr-09 11:33N 43°23' W 001°47'1 1.0
2015-Apr-09 10:33N 43°24' W 001°47'9 9.3
2015-Apr-09 09:33N 43°33' W 001°52'9 9.4
2015-Apr-09 08:33N 43°42' W 001°56'9 9.0
2015-Apr-09 07:33N 43°50' W 002°01'1 1.0
2015-Apr-09 06:33N 43°50' W 002°02'6 1.4
2015-Apr-09 02:09N 43°52' W 001°54'4 4.4
2015-Apr-09 01:20N 43°50' W 001°50'1 1.7
2015-Apr-09 00:32N 43°50' W 001°48'2 2.2
2015-Apr-08 23:33N 43°52' W 001°45'13 4.5
2015-Apr-08 20:33N 43°39' W 001°51'7 7.3
2015-Apr-08 19:33N 43°32' W 001°51'4 4.1
2015-Apr-08 18:33N 43°30' W 001°46'0 0.4
2015-Apr-08 17:33N 43°30' W 001°46'3 2.8
2015-Apr-08 16:32N 43°28' W 001°48'5 5.0
2015-Apr-08 15:33N 43°23' W 001°47'0 0.0
2015-Apr-08 14:33N 43°23' W 001°47'  
Track history (hours):
 
Tides and Currents Weather Stations Pressure Air Temp Water Temp Dewpoint Dewpoint Depression Visibility Wind Speed Wind Dir Waves Ship Positions

Arrantzale

Last reported at 2015-Apr-18 14:09 UTC. Time now 2015-Apr-18 15:13 UTC.
Position N 43°23' W 001°48'.

Length 32 m.

Type: Fishing. MMSI: 224065290.

Date/timePositionNaut miles runAvg speedWind from/ knotsBaromVisibWave heightAir tempDewpointWater temp
2015-Apr-18 14:09N 43°23' W 001°48'0 0.0
2015-Apr-17 17:29N 43°23' W 001°48'0 0.0
2015-Apr-17 16:33N 43°23' W 001°48'0 0.0
2015-Apr-17 15:33N 43°23' W 001°48'0 0.0
2015-Apr-17 14:33N 43°23' W 001°48'0 0.0
2015-Apr-17 13:33N 43°23' W 001°48'7 6.6
2015-Apr-17 12:29N 43°30' W 001°48'1110.9
2015-Apr-17 11:28N 43°41' W 001°47'5610.7
2015-Apr-17 06:11N 44°38' W 001°46'1 0.2
2015-Apr-17 02:34N 44°38' W 001°45'7 1.3
2015-Apr-16 21:13N 44°32' W 001°41'5310.3
2015-Apr-16 16:03N 43°39' W 001°45'710.0
2015-Apr-16 15:24N 43°32' W 001°46'910.2
2015-Apr-16 14:33N 43°24' W 001°47'1 0.9
2015-Apr-16 13:33N 43°23' W 001°48'0 0.0
2015-Apr-16 12:33N 43°23' W 001°48'7 6.9
2015-Apr-16 11:33N 43°30' W 001°45'1111.5
2015-Apr-16 10:33N 43°41' W 001°43'1111.2
2015-Apr-16 09:33N 43°53' W 001°42'3311.0
2015-Apr-16 06:33N 44°26' W 001°38'2 0.9
2015-Apr-16 04:29N 44°27' W 001°37'2 1.8
2015-Apr-16 03:31N 44°26' W 001°37'1 0.9
2015-Apr-16 02:31N 44°25' W 001°37'0 0.4
2015-Apr-16 01:23N 44°25' W 001°37'3 0.9
2015-Apr-15 22:16N 44°24' W 001°41'41 8.5
2015-Apr-15 17:25N 43°43' W 001°42'910.2
2015-Apr-15 16:33N 43°34' W 001°44'1010.5
2015-Apr-15 15:33N 43°24' W 001°47'1 1.0
2015-Apr-15 14:34N 43°23' W 001°47'0 0.0
2015-Apr-15 13:33N 43°23' W 001°47'0 0.1
2015-Apr-15 12:33N 43°23' W 001°47'1210.5
2015-Apr-15 11:27N 43°34' W 001°44'2410.9
2015-Apr-15 09:16N 43°58' W 001°41'811.0
2015-Apr-15 08:33N 44°06' W 001°40'1111.0
2015-Apr-15 07:34N 44°17' W 001°38'1 0.9
2015-Apr-15 06:33N 44°18' W 001°38'0 0.5
2015-Apr-15 05:34N 44°17' W 001°38'3 2.6
2015-Apr-15 04:33N 44°16' W 001°42'1 0.5
2015-Apr-15 03:33N 44°15' W 001°42'2 0.5
2015-Apr-15 00:07N 44°15' W 001°44'6 2.1
2015-Apr-14 21:11N 44°11' W 001°38'0 0.1
2015-Apr-14 20:23N 44°11' W 001°38'34 7.0
2015-Apr-14 15:33N 43°38' W 001°46'1211.5
2015-Apr-14 14:32N 43°26' W 001°48'3 3.4
2015-Apr-14 13:33N 43°23' W 001°47'0 0.0
2015-Apr-14 12:33N 43°23' W 001°47'0 0.0
2015-Apr-14 11:33N 43°23' W 001°47'0 0.0
2015-Apr-14 10:31N 43°23' W 001°47'0 0.0
2015-Apr-14 09:33N 43°23' W 001°47'0 0.0
2015-Apr-14 08:33N 43°23' W 001°47'0 0.0
2015-Apr-14 07:33N 43°23' W 001°47'3 3.1
2015-Apr-14 06:33N 43°24' W 001°51'5 2.4
2015-Apr-14 04:29N 43°26' W 001°58'8 8.5
2015-Apr-14 03:31N 43°33' W 001°51'8 8.8
2015-Apr-14 02:33N 43°40' W 001°46'9 8.9
2015-Apr-14 01:33N 43°49' W 001°42'3 2.7
2015-Apr-14 00:29N 43°52' W 001°42'9 8.3
2015-Apr-13 23:23N 43°45' W 001°49'15 2.1
2015-Apr-13 16:13N 43°32' W 002°01'9 4.2
2015-Apr-13 14:08N 43°25' W 001°55'5 9.5
2015-Apr-13 13:34N 43°23' W 001°47'0 0.2
2015-Apr-13 12:33N 43°23' W 001°48'4 3.7
2015-Apr-13 11:32N 43°26' W 001°52'7 2.3
2015-Apr-13 08:33N 43°32' W 001°55'5 5.4
2015-Apr-13 07:33N 43°27' W 001°52'5 5.0
2015-Apr-13 06:33N 43°23' W 001°48'  
2015-Apr-10 10:33N 43°23' W 001°48'0 0.0
2015-Apr-10 09:33N 43°23' W 001°48'0 0.0
2015-Apr-10 08:33N 43°23' W 001°48'0 0.0
2015-Apr-10 07:33N 43°23' W 001°48'0 0.0
2015-Apr-10 06:33N 43°23' W 001°48'0 0.0
2015-Apr-10 05:33N 43°23' W 001°48'0 0.0
2015-Apr-10 04:33N 43°23' W 001°48'0 0.0
2015-Apr-10 03:33N 43°23' W 001°48'0 0.0
2015-Apr-10 02:33N 43°23' W 001°48'0 0.0
2015-Apr-10 01:33N 43°23' W 001°48'0 0.0
2015-Apr-10 00:33N 43°23' W 001°48'0 0.0
2015-Apr-09 23:33N 43°23' W 001°48'0 0.0
2015-Apr-09 22:33N 43°23' W 001°48'2 2.4
2015-Apr-09 21:33N 43°25' W 001°47'9 7.3
2015-Apr-09 20:21N 43°34' W 001°46'1 0.7
2015-Apr-09 19:32N 43°34' W 001°45'0 0.1
2015-Apr-09 18:33N 43°34' W 001°45'0 0.2
2015-Apr-09 17:34N 43°35' W 001°45'1 1.5
2015-Apr-09 16:34N 43°35' W 001°47'7 7.2
2015-Apr-09 15:33N 43°28' W 001°46'5 4.5
2015-Apr-09 14:33N 43°23' W 001°47'0 0.0
2015-Apr-09 13:33N 43°23' W 001°47'0 0.0
2015-Apr-09 12:33N 43°23' W 001°47'0 0.0
2015-Apr-09 11:33N 43°23' W 001°47'1 1.0
2015-Apr-09 10:33N 43°24' W 001°47'9 9.3
2015-Apr-09 09:33N 43°33' W 001°52'9 9.4
2015-Apr-09 08:33N 43°42' W 001°56'9 9.0
2015-Apr-09 07:33N 43°50' W 002°01'1 1.0
2015-Apr-09 06:33N 43°50' W 002°02'6 1.4
2015-Apr-09 02:09N 43°52' W 001°54'4 4.4
2015-Apr-09 01:20N 43°50' W 001°50'1 1.7
2015-Apr-09 00:32N 43°50' W 001°48'2 2.2
2015-Apr-08 23:33N 43°52' W 001°45'13 4.5
2015-Apr-08 20:33N 43°39' W 001°51'7 7.3
2015-Apr-08 19:33N 43°32' W 001°51'4 4.1
2015-Apr-08 18:33N 43°30' W 001°46'0 0.4
2015-Apr-08 17:33N 43°30' W 001°46'3 2.8
2015-Apr-08 16:32N 43°28' W 001°48'5 5.0
2015-Apr-08 15:33N 43°23' W 001°47'0 0.0
2015-Apr-08 14:33N 43°23' W 001°47'  

Dump ship's entire track history